sensor_id;sensor_type;location;lat;lon;timestamp;P1;durP1;ratioP1;P2;durP2;ratioP2
6983;SDS011;3532;51.118;7.210;2022-12-24T00:02:15;18.50;;;6.23;;
6983;SDS011;3532;51.118;7.210;2022-12-24T00:04:41;21.83;;;6.67;;
6983;SDS011;3532;51.118;7.210;2022-12-24T00:07:06;17.07;;;5.73;;
6983;SDS011;3532;51.118;7.210;2022-12-24T00:09:31;19.07;;;6.27;;
6983;SDS011;3532;51.118;7.210;2022-12-24T00:11:57;22.60;;;5.73;;
6983;SDS011;3532;51.118;7.210;2022-12-24T00:14:22;20.93;;;6.63;;
6983;SDS011;3532;51.118;7.210;2022-12-24T00:16:47;13.20;;;6.07;;
6983;SDS011;3532;51.118;7.210;2022-12-24T00:19:13;22.77;;;5.77;;
6983;SDS011;3532;51.118;7.210;2022-12-24T00:21:38;18.83;;;6.00;;
6983;SDS011;3532;51.118;7.210;2022-12-24T00:24:03;25.27;;;6.77;;
6983;SDS011;3532;51.118;7.210;2022-12-24T00:26:30;16.53;;;5.87;;
6983;SDS011;3532;51.118;7.210;2022-12-24T00:28:56;18.00;;;6.40;;
6983;SDS011;3532;51.118;7.210;2022-12-24T00:31:21;22.70;;;7.37;;
6983;SDS011;3532;51.118;7.210;2022-12-24T00:33:47;18.77;;;6.07;;
6983;SDS011;3532;51.118;7.210;2022-12-24T00:36:12;21.47;;;6.37;;
6983;SDS011;3532;51.118;7.210;2022-12-24T00:38:38;27.10;;;7.40;;
6983;SDS011;3532;51.118;7.210;2022-12-24T00:41:04;21.83;;;6.97;;
6983;SDS011;3532;51.118;7.210;2022-12-24T00:43:30;17.63;;;6.10;;
6983;SDS011;3532;51.118;7.210;2022-12-24T00:45:56;22.93;;;7.20;;
6983;SDS011;3532;51.118;7.210;2022-12-24T00:48:21;33.47;;;6.33;;
6983;SDS011;3532;51.118;7.210;2022-12-24T00:50:47;21.33;;;7.03;;
6983;SDS011;3532;51.118;7.210;2022-12-24T00:53:14;28.73;;;6.97;;
6983;SDS011;3532;51.118;7.210;2022-12-24T00:55:39;18.43;;;6.43;;
6983;SDS011;3532;51.118;7.210;2022-12-24T00:58:05;17.43;;;6.53;;
6983;SDS011;3532;51.118;7.210;2022-12-24T01:00:31;26.40;;;6.60;;
6983;SDS011;3532;51.118;7.210;2022-12-24T01:02:56;21.87;;;6.13;;
6983;SDS011;3532;51.118;7.210;2022-12-24T01:05:22;21.27;;;6.40;;
6983;SDS011;3532;51.118;7.210;2022-12-24T01:07:47;16.67;;;6.23;;
6983;SDS011;3532;51.118;7.210;2022-12-24T01:10:14;21.63;;;7.17;;
6983;SDS011;3532;51.118;7.210;2022-12-24T01:12:41;20.00;;;6.27;;
6983;SDS011;3532;51.118;7.210;2022-12-24T01:15:07;26.30;;;7.23;;
6983;SDS011;3532;51.118;7.210;2022-12-24T01:17:33;23.10;;;6.93;;
6983;SDS011;3532;51.118;7.210;2022-12-24T01:19:59;20.87;;;7.17;;
6983;SDS011;3532;51.118;7.210;2022-12-24T01:22:25;24.40;;;5.97;;
6983;SDS011;3532;51.118;7.210;2022-12-24T01:24:50;25.53;;;6.37;;
6983;SDS011;3532;51.118;7.210;2022-12-24T01:27:16;17.60;;;6.27;;
6983;SDS011;3532;51.118;7.210;2022-12-24T01:29:41;17.17;;;6.00;;
6983;SDS011;3532;51.118;7.210;2022-12-24T01:32:06;25.77;;;8.03;;
6983;SDS011;3532;51.118;7.210;2022-12-24T01:34:31;16.87;;;6.47;;
6983;SDS011;3532;51.118;7.210;2022-12-24T01:36:57;22.93;;;6.90;;
6983;SDS011;3532;51.118;7.210;2022-12-24T01:39:22;31.53;;;7.97;;
6983;SDS011;3532;51.118;7.210;2022-12-24T01:41:48;27.13;;;7.20;;
6983;SDS011;3532;51.118;7.210;2022-12-24T01:44:33;27.83;;;7.43;;
6983;SDS011;3532;51.118;7.210;2022-12-24T01:47:05;24.67;;;8.10;;
6983;SDS011;3532;51.118;7.210;2022-12-24T01:49:33;24.23;;;7.73;;
6983;SDS011;3532;51.118;7.210;2022-12-24T01:52:06;27.43;;;6.60;;
6983;SDS011;3532;51.118;7.210;2022-12-24T01:54:42;25.30;;;7.93;;
6983;SDS011;3532;51.118;7.210;2022-12-24T01:57:12;22.50;;;6.50;;
6983;SDS011;3532;51.118;7.210;2022-12-24T01:59:42;22.63;;;7.00;;
6983;SDS011;3532;51.118;7.210;2022-12-24T02:02:10;20.63;;;6.83;;
6983;SDS011;3532;51.118;7.210;2022-12-24T02:04:38;20.47;;;6.90;;
6983;SDS011;3532;51.118;7.210;2022-12-24T02:07:05;19.53;;;6.33;;
6983;SDS011;3532;51.118;7.210;2022-12-24T02:09:31;21.43;;;5.97;;
6983;SDS011;3532;51.118;7.210;2022-12-24T02:11:58;17.63;;;7.20;;
6983;SDS011;3532;51.118;7.210;2022-12-24T02:14:24;15.10;;;6.70;;
6983;SDS011;3532;51.118;7.210;2022-12-24T02:17:13;22.33;;;7.07;;
6983;SDS011;3532;51.118;7.210;2022-12-24T02:20:01;20.87;;;6.57;;
6983;SDS011;3532;51.118;7.210;2022-12-24T02:28:10;26.70;;;6.40;;
6983;SDS011;3532;51.118;7.210;2022-12-24T02:30:41;21.97;;;5.80;;
6983;SDS011;3532;51.118;7.210;2022-12-24T02:36:12;25.63;;;7.77;;
6983;SDS011;3532;51.118;7.210;2022-12-24T02:38:48;18.23;;;6.00;;
6983;SDS011;3532;51.118;7.210;2022-12-24T02:41:25;29.97;;;6.63;;
6983;SDS011;3532;51.118;7.210;2022-12-24T02:44:14;17.80;;;5.97;;
6983;SDS011;3532;51.118;7.210;2022-12-24T02:46:40;25.97;;;7.00;;
6983;SDS011;3532;51.118;7.210;2022-12-24T02:49:05;19.37;;;6.23;;
6983;SDS011;3532;51.118;7.210;2022-12-24T02:51:30;26.90;;;7.10;;
6983;SDS011;3532;51.118;7.210;2022-12-24T02:53:56;24.70;;;6.77;;
6983;SDS011;3532;51.118;7.210;2022-12-24T03:07:30;16.00;;;6.20;;
6983;SDS011;3532;51.118;7.210;2022-12-24T03:10:19;20.33;;;6.17;;
6983;SDS011;3532;51.118;7.210;2022-12-24T03:12:51;17.50;;;5.03;;
6983;SDS011;3532;51.118;7.210;2022-12-24T03:15:22;20.63;;;6.70;;
6983;SDS011;3532;51.118;7.210;2022-12-24T03:17:51;24.40;;;5.97;;
6983;SDS011;3532;51.118;7.210;2022-12-24T03:20:23;20.83;;;6.30;;
6983;SDS011;3532;51.118;7.210;2022-12-24T03:22:52;22.40;;;6.20;;
6983;SDS011;3532;51.118;7.210;2022-12-24T03:25:17;20.13;;;5.93;;
6983;SDS011;3532;51.118;7.210;2022-12-24T03:27:43;16.03;;;5.90;;
6983;SDS011;3532;51.118;7.210;2022-12-24T03:30:12;21.63;;;7.23;;
6983;SDS011;3532;51.118;7.210;2022-12-24T03:32:38;16.40;;;5.43;;
6983;SDS011;3532;51.118;7.210;2022-12-24T03:35:04;25.33;;;6.27;;
6983;SDS011;3532;51.118;7.210;2022-12-24T03:37:31;19.37;;;7.23;;
6983;SDS011;3532;51.118;7.210;2022-12-24T03:39:56;22.33;;;6.70;;
6983;SDS011;3532;51.118;7.210;2022-12-24T03:42:21;20.00;;;5.93;;
6983;SDS011;3532;51.118;7.210;2022-12-24T03:44:47;23.17;;;6.23;;
6983;SDS011;3532;51.118;7.210;2022-12-24T03:47:12;19.70;;;5.83;;
6983;SDS011;3532;51.118;7.210;2022-12-24T03:49:37;21.27;;;6.17;;
6983;SDS011;3532;51.118;7.210;2022-12-24T03:52:02;16.77;;;6.00;;
6983;SDS011;3532;51.118;7.210;2022-12-24T03:54:28;18.73;;;5.73;;
6983;SDS011;3532;51.118;7.210;2022-12-24T03:56:53;14.37;;;5.50;;
6983;SDS011;3532;51.118;7.210;2022-12-24T03:59:18;19.57;;;5.67;;
6983;SDS011;3532;51.118;7.210;2022-12-24T04:01:44;17.23;;;5.23;;
6983;SDS011;3532;51.118;7.210;2022-12-24T04:04:09;9.57;;;5.27;;
6983;SDS011;3532;51.118;7.210;2022-12-24T04:06:34;22.50;;;5.80;;
6983;SDS011;3532;51.118;7.210;2022-12-24T04:09:00;15.63;;;5.57;;
6983;SDS011;3532;51.118;7.210;2022-12-24T04:11:28;13.73;;;4.73;;
6983;SDS011;3532;51.118;7.210;2022-12-24T04:13:54;10.03;;;4.40;;
6983;SDS011;3532;51.118;7.210;2022-12-24T04:16:19;9.97;;;4.43;;
6983;SDS011;3532;51.118;7.210;2022-12-24T04:18:45;17.13;;;4.67;;
6983;SDS011;3532;51.118;7.210;2022-12-24T04:21:10;11.17;;;4.70;;
6983;SDS011;3532;51.118;7.210;2022-12-24T04:23:36;12.33;;;3.93;;
6983;SDS011;3532;51.118;7.210;2022-12-24T04:26:02;9.00;;;3.80;;
6983;SDS011;3532;51.118;7.210;2022-12-24T04:28:29;13.07;;;4.87;;
6983;SDS011;3532;51.118;7.210;2022-12-24T04:31:01;17.53;;;4.47;;
6983;SDS011;3532;51.118;7.210;2022-12-24T04:33:27;8.50;;;3.80;;
6983;SDS011;3532;51.118;7.210;2022-12-24T04:35:53;10.50;;;4.17;;
6983;SDS011;3532;51.118;7.210;2022-12-24T04:38:21;10.40;;;4.30;;
6983;SDS011;3532;51.118;7.210;2022-12-24T04:40:46;13.07;;;3.80;;
6983;SDS011;3532;51.118;7.210;2022-12-24T04:43:11;7.70;;;3.73;;
6983;SDS011;3532;51.118;7.210;2022-12-24T04:45:37;12.23;;;2.83;;
6983;SDS011;3532;51.118;7.210;2022-12-24T04:48:02;12.20;;;4.60;;
6983;SDS011;3532;51.118;7.210;2022-12-24T04:50:27;12.37;;;3.63;;
6983;SDS011;3532;51.118;7.210;2022-12-24T04:52:53;8.73;;;3.97;;
6983;SDS011;3532;51.118;7.210;2022-12-24T04:55:18;10.03;;;3.83;;
6983;SDS011;3532;51.118;7.210;2022-12-24T04:57:43;6.73;;;3.23;;
6983;SDS011;3532;51.118;7.210;2022-12-24T05:00:09;8.50;;;3.70;;
6983;SDS011;3532;51.118;7.210;2022-12-24T05:02:35;6.63;;;3.30;;
6983;SDS011;3532;51.118;7.210;2022-12-24T05:05:00;8.20;;;3.53;;
6983;SDS011;3532;51.118;7.210;2022-12-24T05:07:26;10.90;;;3.67;;
6983;SDS011;3532;51.118;7.210;2022-12-24T05:09:51;9.10;;;4.20;;
6983;SDS011;3532;51.118;7.210;2022-12-24T05:12:16;6.47;;;3.80;;
6983;SDS011;3532;51.118;7.210;2022-12-24T05:14:42;8.43;;;3.40;;
6983;SDS011;3532;51.118;7.210;2022-12-24T05:17:07;10.30;;;3.77;;
6983;SDS011;3532;51.118;7.210;2022-12-24T05:19:32;8.40;;;3.90;;
6983;SDS011;3532;51.118;7.210;2022-12-24T05:21:58;10.47;;;4.03;;
6983;SDS011;3532;51.118;7.210;2022-12-24T05:24:42;14.73;;;4.60;;
6983;SDS011;3532;51.118;7.210;2022-12-24T05:27:26;12.07;;;4.63;;
6983;SDS011;3532;51.118;7.210;2022-12-24T05:29:51;13.13;;;4.10;;
6983;SDS011;3532;51.118;7.210;2022-12-24T05:32:16;15.93;;;4.57;;
6983;SDS011;3532;51.118;7.210;2022-12-24T05:34:42;13.07;;;5.30;;
6983;SDS011;3532;51.118;7.210;2022-12-24T05:37:07;7.27;;;3.93;;
6983;SDS011;3532;51.118;7.210;2022-12-24T05:39:32;11.60;;;4.47;;
6983;SDS011;3532;51.118;7.210;2022-12-24T05:41:58;7.53;;;4.37;;
6983;SDS011;3532;51.118;7.210;2022-12-24T05:44:23;13.83;;;5.00;;
6983;SDS011;3532;51.118;7.210;2022-12-24T05:46:48;11.87;;;4.13;;
6983;SDS011;3532;51.118;7.210;2022-12-24T05:49:14;16.00;;;5.57;;
6983;SDS011;3532;51.118;7.210;2022-12-24T05:51:39;16.50;;;5.37;;
6983;SDS011;3532;51.118;7.210;2022-12-24T05:54:05;12.80;;;5.00;;
6983;SDS011;3532;51.118;7.210;2022-12-24T05:56:30;15.03;;;4.90;;
6983;SDS011;3532;51.118;7.210;2022-12-24T05:58:56;18.53;;;5.43;;
6983;SDS011;3532;51.118;7.210;2022-12-24T06:01:22;12.43;;;5.03;;
6983;SDS011;3532;51.118;7.210;2022-12-24T06:03:47;21.17;;;5.07;;
6983;SDS011;3532;51.118;7.210;2022-12-24T06:06:17;15.83;;;5.30;;
6983;SDS011;3532;51.118;7.210;2022-12-24T06:08:48;16.73;;;5.47;;
6983;SDS011;3532;51.118;7.210;2022-12-24T06:11:14;13.33;;;5.90;;
6983;SDS011;3532;51.118;7.210;2022-12-24T06:13:41;14.27;;;5.03;;
6983;SDS011;3532;51.118;7.210;2022-12-24T06:16:07;12.07;;;5.03;;
6983;SDS011;3532;51.118;7.210;2022-12-24T06:18:34;14.10;;;6.27;;
6983;SDS011;3532;51.118;7.210;2022-12-24T06:21:00;12.93;;;4.87;;
6983;SDS011;3532;51.118;7.210;2022-12-24T06:23:25;16.57;;;5.70;;
6983;SDS011;3532;51.118;7.210;2022-12-24T06:25:54;17.03;;;5.27;;
6983;SDS011;3532;51.118;7.210;2022-12-24T06:28:20;17.10;;;5.37;;
6983;SDS011;3532;51.118;7.210;2022-12-24T06:30:46;14.27;;;5.10;;
6983;SDS011;3532;51.118;7.210;2022-12-24T06:33:13;9.20;;;4.90;;
6983;SDS011;3532;51.118;7.210;2022-12-24T06:35:38;18.50;;;5.57;;
6983;SDS011;3532;51.118;7.210;2022-12-24T06:38:03;13.43;;;5.83;;
6983;SDS011;3532;51.118;7.210;2022-12-24T06:40:29;20.00;;;4.83;;
6983;SDS011;3532;51.118;7.210;2022-12-24T06:42:54;15.43;;;5.57;;
6983;SDS011;3532;51.118;7.210;2022-12-24T06:45:20;21.13;;;6.37;;
6983;SDS011;3532;51.118;7.210;2022-12-24T06:47:45;12.77;;;5.00;;
6983;SDS011;3532;51.118;7.210;2022-12-24T06:50:10;14.97;;;4.63;;
6983;SDS011;3532;51.118;7.210;2022-12-24T06:52:36;14.00;;;5.63;;
6983;SDS011;3532;51.118;7.210;2022-12-24T06:55:02;12.80;;;5.47;;
6983;SDS011;3532;51.118;7.210;2022-12-24T06:57:27;20.43;;;7.07;;
6983;SDS011;3532;51.118;7.210;2022-12-24T06:59:53;23.53;;;6.07;;
6983;SDS011;3532;51.118;7.210;2022-12-24T07:02:18;12.47;;;5.83;;
6983;SDS011;3532;51.118;7.210;2022-12-24T07:04:43;11.10;;;5.23;;
6983;SDS011;3532;51.118;7.210;2022-12-24T07:07:08;14.83;;;6.10;;
6983;SDS011;3532;51.118;7.210;2022-12-24T07:09:34;17.87;;;5.63;;
6983;SDS011;3532;51.118;7.210;2022-12-24T07:11:59;9.97;;;5.43;;
6983;SDS011;3532;51.118;7.210;2022-12-24T07:14:24;16.73;;;5.97;;
6983;SDS011;3532;51.118;7.210;2022-12-24T07:16:50;20.87;;;6.63;;
6983;SDS011;3532;51.118;7.210;2022-12-24T07:19:17;18.60;;;5.90;;
6983;SDS011;3532;51.118;7.210;2022-12-24T07:21:42;14.50;;;4.97;;
6983;SDS011;3532;51.118;7.210;2022-12-24T07:24:07;18.00;;;5.77;;
6983;SDS011;3532;51.118;7.210;2022-12-24T07:26:32;20.10;;;6.47;;
6983;SDS011;3532;51.118;7.210;2022-12-24T07:28:58;18.37;;;6.57;;
6983;SDS011;3532;51.118;7.210;2022-12-24T07:31:23;19.47;;;6.10;;
6983;SDS011;3532;51.118;7.210;2022-12-24T07:33:49;19.07;;;6.63;;
6983;SDS011;3532;51.118;7.210;2022-12-24T07:36:16;20.40;;;6.77;;
6983;SDS011;3532;51.118;7.210;2022-12-24T07:38:43;22.87;;;6.77;;
6983;SDS011;3532;51.118;7.210;2022-12-24T07:41:08;22.20;;;6.63;;
6983;SDS011;3532;51.118;7.210;2022-12-24T07:43:33;24.93;;;8.03;;
6983;SDS011;3532;51.118;7.210;2022-12-24T07:45:59;21.17;;;7.23;;
6983;SDS011;3532;51.118;7.210;2022-12-24T07:48:25;18.90;;;6.60;;
6983;SDS011;3532;51.118;7.210;2022-12-24T07:50:51;17.30;;;6.03;;
6983;SDS011;3532;51.118;7.210;2022-12-24T07:53:17;15.93;;;6.43;;
6983;SDS011;3532;51.118;7.210;2022-12-24T07:55:42;16.80;;;7.30;;
6983;SDS011;3532;51.118;7.210;2022-12-24T07:58:08;18.77;;;7.20;;
6983;SDS011;3532;51.118;7.210;2022-12-24T08:00:33;22.67;;;6.87;;
6983;SDS011;3532;51.118;7.210;2022-12-24T08:02:59;16.63;;;5.93;;
6983;SDS011;3532;51.118;7.210;2022-12-24T08:05:24;24.90;;;7.53;;
6983;SDS011;3532;51.118;7.210;2022-12-24T08:07:51;19.20;;;6.10;;
6983;SDS011;3532;51.118;7.210;2022-12-24T08:10:16;18.80;;;7.03;;
6983;SDS011;3532;51.118;7.210;2022-12-24T08:12:41;18.40;;;5.90;;
6983;SDS011;3532;51.118;7.210;2022-12-24T08:15:07;26.27;;;6.53;;
6983;SDS011;3532;51.118;7.210;2022-12-24T08:17:32;18.23;;;5.97;;
6983;SDS011;3532;51.118;7.210;2022-12-24T08:19:58;16.33;;;5.57;;
6983;SDS011;3532;51.118;7.210;2022-12-24T08:22:23;22.47;;;6.60;;
6983;SDS011;3532;51.118;7.210;2022-12-24T08:24:48;22.97;;;6.77;;
6983;SDS011;3532;51.118;7.210;2022-12-24T08:27:14;22.17;;;7.83;;
6983;SDS011;3532;51.118;7.210;2022-12-24T08:29:39;25.00;;;6.90;;
6983;SDS011;3532;51.118;7.210;2022-12-24T08:32:04;23.07;;;7.63;;
6983;SDS011;3532;51.118;7.210;2022-12-24T08:34:30;18.87;;;6.23;;
6983;SDS011;3532;51.118;7.210;2022-12-24T08:36:55;18.20;;;7.03;;
6983;SDS011;3532;51.118;7.210;2022-12-24T08:39:20;24.27;;;6.50;;
6983;SDS011;3532;51.118;7.210;2022-12-24T08:41:46;24.10;;;7.30;;
6983;SDS011;3532;51.118;7.210;2022-12-24T08:44:11;20.40;;;7.17;;
6983;SDS011;3532;51.118;7.210;2022-12-24T08:46:36;26.63;;;7.37;;
6983;SDS011;3532;51.118;7.210;2022-12-24T08:49:01;20.83;;;6.83;;
6983;SDS011;3532;51.118;7.210;2022-12-24T08:51:27;21.07;;;6.93;;
6983;SDS011;3532;51.118;7.210;2022-12-24T08:53:52;18.60;;;5.97;;
6983;SDS011;3532;51.118;7.210;2022-12-24T08:56:17;18.60;;;7.80;;
6983;SDS011;3532;51.118;7.210;2022-12-24T08:58:43;18.17;;;6.27;;
6983;SDS011;3532;51.118;7.210;2022-12-24T09:01:10;22.43;;;6.30;;
6983;SDS011;3532;51.118;7.210;2022-12-24T09:03:37;24.80;;;6.40;;
6983;SDS011;3532;51.118;7.210;2022-12-24T09:06:03;17.93;;;6.33;;
6983;SDS011;3532;51.118;7.210;2022-12-24T09:08:28;25.00;;;7.77;;
6983;SDS011;3532;51.118;7.210;2022-12-24T09:10:54;19.27;;;6.67;;
6983;SDS011;3532;51.118;7.210;2022-12-24T09:13:19;23.20;;;6.07;;
6983;SDS011;3532;51.118;7.210;2022-12-24T09:15:51;22.23;;;7.23;;
6983;SDS011;3532;51.118;7.210;2022-12-24T09:18:19;19.03;;;6.77;;
6983;SDS011;3532;51.118;7.210;2022-12-24T09:20:44;20.70;;;6.67;;
6983;SDS011;3532;51.118;7.210;2022-12-24T09:23:10;20.10;;;7.57;;
6983;SDS011;3532;51.118;7.210;2022-12-24T09:25:39;23.67;;;7.40;;
6983;SDS011;3532;51.118;7.210;2022-12-24T09:28:05;25.50;;;6.57;;
6983;SDS011;3532;51.118;7.210;2022-12-24T09:30:30;24.60;;;6.87;;
6983;SDS011;3532;51.118;7.210;2022-12-24T09:32:55;21.27;;;7.17;;
6983;SDS011;3532;51.118;7.210;2022-12-24T09:35:21;29.77;;;7.17;;
6983;SDS011;3532;51.118;7.210;2022-12-24T09:37:46;26.13;;;7.07;;
6983;SDS011;3532;51.118;7.210;2022-12-24T09:40:17;13.73;;;6.33;;
6983;SDS011;3532;51.118;7.210;2022-12-24T09:42:52;24.33;;;6.27;;
6983;SDS011;3532;51.118;7.210;2022-12-24T09:45:30;22.23;;;6.90;;
6983;SDS011;3532;51.118;7.210;2022-12-24T09:53:23;22.33;;;7.80;;
6983;SDS011;3532;51.118;7.210;2022-12-24T09:55:56;20.73;;;6.63;;
6983;SDS011;3532;51.118;7.210;2022-12-24T09:58:24;18.90;;;6.97;;
6983;SDS011;3532;51.118;7.210;2022-12-24T10:00:55;18.77;;;6.10;;
6983;SDS011;3532;51.118;7.210;2022-12-24T10:03:20;31.93;;;7.20;;
6983;SDS011;3532;51.118;7.210;2022-12-24T10:13:47;21.60;;;6.93;;
6983;SDS011;3532;51.118;7.210;2022-12-24T10:16:27;30.37;;;7.13;;
6983;SDS011;3532;51.118;7.210;2022-12-24T10:24:15;19.17;;;6.57;;
6983;SDS011;3532;51.118;7.210;2022-12-24T10:26:56;24.27;;;7.70;;
6983;SDS011;3532;51.118;7.210;2022-12-24T10:29:29;14.57;;;6.30;;
6983;SDS011;3532;51.118;7.210;2022-12-24T10:32:03;21.63;;;7.00;;
6983;SDS011;3532;51.118;7.210;2022-12-24T10:34:35;23.30;;;7.13;;
6983;SDS011;3532;51.118;7.210;2022-12-24T10:37:03;22.13;;;7.83;;
6983;SDS011;3532;51.118;7.210;2022-12-24T10:39:29;22.60;;;8.40;;
6983;SDS011;3532;51.118;7.210;2022-12-24T10:41:55;27.47;;;7.03;;
6983;SDS011;3532;51.118;7.210;2022-12-24T10:44:27;19.97;;;7.77;;
6983;SDS011;3532;51.118;7.210;2022-12-24T10:46:54;17.00;;;7.37;;
6983;SDS011;3532;51.118;7.210;2022-12-24T10:51:58;20.60;;;7.33;;
6983;SDS011;3532;51.118;7.210;2022-12-24T10:54:27;26.23;;;7.67;;
6983;SDS011;3532;51.118;7.210;2022-12-24T10:56:57;26.20;;;7.30;;
6983;SDS011;3532;51.118;7.210;2022-12-24T10:59:28;29.40;;;8.10;;
6983;SDS011;3532;51.118;7.210;2022-12-24T11:01:56;20.40;;;6.97;;
6983;SDS011;3532;51.118;7.210;2022-12-24T11:04:23;17.43;;;6.93;;
6983;SDS011;3532;51.118;7.210;2022-12-24T11:06:50;23.73;;;7.03;;
6983;SDS011;3532;51.118;7.210;2022-12-24T11:09:20;17.27;;;6.97;;
6983;SDS011;3532;51.118;7.210;2022-12-24T11:11:48;20.53;;;7.67;;
6983;SDS011;3532;51.118;7.210;2022-12-24T11:14:13;24.90;;;7.57;;
6983;SDS011;3532;51.118;7.210;2022-12-24T11:16:46;21.83;;;7.50;;
6983;SDS011;3532;51.118;7.210;2022-12-24T11:19:14;29.97;;;7.87;;
6983;SDS011;3532;51.118;7.210;2022-12-24T11:21:41;22.17;;;7.53;;
6983;SDS011;3532;51.118;7.210;2022-12-24T11:26:45;28.03;;;8.77;;
6983;SDS011;3532;51.118;7.210;2022-12-24T11:29:12;15.73;;;7.10;;
6983;SDS011;3532;51.118;7.210;2022-12-24T11:31:45;29.93;;;8.80;;
6983;SDS011;3532;51.118;7.210;2022-12-24T11:34:16;17.77;;;6.57;;
6983;SDS011;3532;51.118;7.210;2022-12-24T11:36:45;19.77;;;7.70;;
6983;SDS011;3532;51.118;7.210;2022-12-24T11:39:21;24.13;;;8.27;;
6983;SDS011;3532;51.118;7.210;2022-12-24T11:41:48;24.13;;;7.60;;
6983;SDS011;3532;51.118;7.210;2022-12-24T11:44:26;21.70;;;8.20;;
6983;SDS011;3532;51.118;7.210;2022-12-24T11:46:52;25.13;;;8.50;;
6983;SDS011;3532;51.118;7.210;2022-12-24T11:49:28;22.37;;;8.23;;
6983;SDS011;3532;51.118;7.210;2022-12-24T11:51:59;30.03;;;9.40;;
6983;SDS011;3532;51.118;7.210;2022-12-24T11:54:38;20.67;;;7.53;;
6983;SDS011;3532;51.118;7.210;2022-12-24T11:57:07;22.80;;;8.13;;
6983;SDS011;3532;51.118;7.210;2022-12-24T11:59:35;21.80;;;7.80;;
6983;SDS011;3532;51.118;7.210;2022-12-24T12:02:25;25.07;;;8.07;;
6983;SDS011;3532;51.118;7.210;2022-12-24T12:04:53;27.07;;;8.60;;
6983;SDS011;3532;51.118;7.210;2022-12-24T12:07:26;19.73;;;7.90;;
6983;SDS011;3532;51.118;7.210;2022-12-24T12:09:56;17.70;;;6.77;;
6983;SDS011;3532;51.118;7.210;2022-12-24T12:12:24;18.83;;;6.90;;
6983;SDS011;3532;51.118;7.210;2022-12-24T12:14:56;30.07;;;7.80;;
6983;SDS011;3532;51.118;7.210;2022-12-24T12:17:43;26.70;;;8.20;;
6983;SDS011;3532;51.118;7.210;2022-12-24T12:20:17;30.70;;;7.93;;
6983;SDS011;3532;51.118;7.210;2022-12-24T12:25:25;15.33;;;6.83;;
6983;SDS011;3532;51.118;7.210;2022-12-24T12:27:55;27.83;;;7.33;;
6983;SDS011;3532;51.118;7.210;2022-12-24T12:30:21;22.50;;;7.20;;
6983;SDS011;3532;51.118;7.210;2022-12-24T12:32:58;18.90;;;6.47;;
6983;SDS011;3532;51.118;7.210;2022-12-24T12:35:30;26.80;;;8.53;;
6983;SDS011;3532;51.118;7.210;2022-12-24T12:38:00;23.83;;;7.13;;
6983;SDS011;3532;51.118;7.210;2022-12-24T12:40:33;24.50;;;7.63;;
6983;SDS011;3532;51.118;7.210;2022-12-24T12:43:27;22.10;;;7.13;;
6983;SDS011;3532;51.118;7.210;2022-12-24T12:54:23;21.37;;;7.67;;
6983;SDS011;3532;51.118;7.210;2022-12-24T12:57:02;24.73;;;6.70;;
6983;SDS011;3532;51.118;7.210;2022-12-24T13:21:17;24.07;;;7.27;;
6983;SDS011;3532;51.118;7.210;2022-12-24T13:23:44;24.20;;;8.10;;
6983;SDS011;3532;51.118;7.210;2022-12-24T13:26:10;18.37;;;6.77;;
6983;SDS011;3532;51.118;7.210;2022-12-24T13:28:37;26.27;;;6.63;;
6983;SDS011;3532;51.118;7.210;2022-12-24T13:33:50;21.53;;;6.63;;
6983;SDS011;3532;51.118;7.210;2022-12-24T13:36:17;24.70;;;6.27;;
6983;SDS011;3532;51.118;7.210;2022-12-24T13:49:29;15.53;;;6.33;;
6983;SDS011;3532;51.118;7.210;2022-12-24T13:54:40;19.10;;;6.53;;
6983;SDS011;3532;51.118;7.210;2022-12-24T13:57:26;16.90;;;5.87;;
6983;SDS011;3532;51.118;7.210;2022-12-24T14:00:23;18.33;;;5.20;;
6983;SDS011;3532;51.118;7.210;2022-12-24T14:06:06;20.00;;;6.07;;
6983;SDS011;3532;51.118;7.210;2022-12-24T14:08:41;19.90;;;6.23;;
6983;SDS011;3532;51.118;7.210;2022-12-24T14:11:12;19.73;;;6.07;;
6983;SDS011;3532;51.118;7.210;2022-12-24T14:16:16;20.33;;;5.80;;
6983;SDS011;3532;51.118;7.210;2022-12-24T14:18:45;15.20;;;5.43;;
6983;SDS011;3532;51.118;7.210;2022-12-24T14:21:24;15.13;;;6.20;;
6983;SDS011;3532;51.118;7.210;2022-12-24T14:23:56;19.47;;;5.53;;
6983;SDS011;3532;51.118;7.210;2022-12-24T14:26:26;16.73;;;6.07;;
6983;SDS011;3532;51.118;7.210;2022-12-24T14:28:55;18.03;;;6.10;;
6983;SDS011;3532;51.118;7.210;2022-12-24T14:31:23;17.33;;;6.00;;
6983;SDS011;3532;51.118;7.210;2022-12-24T14:33:48;19.67;;;6.00;;
6983;SDS011;3532;51.118;7.210;2022-12-24T14:36:14;14.03;;;5.60;;
6983;SDS011;3532;51.118;7.210;2022-12-24T14:38:44;20.27;;;7.10;;
6983;SDS011;3532;51.118;7.210;2022-12-24T14:44:20;24.53;;;7.37;;
6983;SDS011;3532;51.118;7.210;2022-12-24T14:49:57;17.73;;;5.77;;
6983;SDS011;3532;51.118;7.210;2022-12-24T14:52:34;21.00;;;6.40;;
6983;SDS011;3532;51.118;7.210;2022-12-24T15:00:43;16.97;;;6.67;;
6983;SDS011;3532;51.118;7.210;2022-12-24T15:03:13;19.77;;;6.17;;
6983;SDS011;3532;51.118;7.210;2022-12-24T15:05:39;14.47;;;6.17;;
6983;SDS011;3532;51.118;7.210;2022-12-24T15:08:14;19.30;;;6.00;;
6983;SDS011;3532;51.118;7.210;2022-12-24T15:10:42;18.07;;;6.57;;
6983;SDS011;3532;51.118;7.210;2022-12-24T15:15:49;21.67;;;6.73;;
6983;SDS011;3532;51.118;7.210;2022-12-24T15:18:17;17.83;;;6.10;;
6983;SDS011;3532;51.118;7.210;2022-12-24T15:20:46;15.67;;;6.30;;
6983;SDS011;3532;51.118;7.210;2022-12-24T15:23:20;19.57;;;6.77;;
6983;SDS011;3532;51.118;7.210;2022-12-24T15:25:46;18.90;;;5.77;;
6983;SDS011;3532;51.118;7.210;2022-12-24T15:28:14;22.70;;;6.27;;
6983;SDS011;3532;51.118;7.210;2022-12-24T15:30:44;15.17;;;6.07;;
6983;SDS011;3532;51.118;7.210;2022-12-24T15:33:10;19.77;;;6.30;;
6983;SDS011;3532;51.118;7.210;2022-12-24T15:35:43;17.57;;;5.40;;
6983;SDS011;3532;51.118;7.210;2022-12-24T15:38:30;19.57;;;6.43;;
6983;SDS011;3532;51.118;7.210;2022-12-24T15:40:58;16.13;;;5.90;;
6983;SDS011;3532;51.118;7.210;2022-12-24T15:43:24;19.70;;;6.33;;
6983;SDS011;3532;51.118;7.210;2022-12-24T15:45:50;21.30;;;6.60;;
6983;SDS011;3532;51.118;7.210;2022-12-24T15:48:26;21.63;;;6.97;;
6983;SDS011;3532;51.118;7.210;2022-12-24T15:50:53;20.50;;;5.80;;
6983;SDS011;3532;51.118;7.210;2022-12-24T15:53:30;17.77;;;6.70;;
6983;SDS011;3532;51.118;7.210;2022-12-24T15:56:02;20.45;;;7.35;;
6983;SDS011;3532;51.118;7.210;2022-12-24T15:58:34;14.90;;;6.10;;
6983;SDS011;3532;51.118;7.210;2022-12-24T16:06:16;17.23;;;5.63;;
6983;SDS011;3532;51.118;7.210;2022-12-24T16:08:42;17.17;;;6.23;;
6983;SDS011;3532;51.118;7.210;2022-12-24T16:11:25;18.20;;;5.80;;
6983;SDS011;3532;51.118;7.210;2022-12-24T16:14:06;24.40;;;6.60;;
6983;SDS011;3532;51.118;7.210;2022-12-24T16:16:37;23.47;;;6.33;;
6983;SDS011;3532;51.118;7.210;2022-12-24T16:19:04;13.57;;;5.43;;
6983;SDS011;3532;51.118;7.210;2022-12-24T16:21:35;15.73;;;5.77;;
6983;SDS011;3532;51.118;7.210;2022-12-24T16:24:24;18.10;;;5.33;;
6983;SDS011;3532;51.118;7.210;2022-12-24T16:26:54;20.10;;;6.40;;
6983;SDS011;3532;51.118;7.210;2022-12-24T16:29:20;14.93;;;5.87;;
6983;SDS011;3532;51.118;7.210;2022-12-24T16:31:50;16.97;;;5.83;;
6983;SDS011;3532;51.118;7.210;2022-12-24T16:34:17;19.00;;;6.97;;
6983;SDS011;3532;51.118;7.210;2022-12-24T16:36:43;16.20;;;6.00;;
6983;SDS011;3532;51.118;7.210;2022-12-24T16:39:11;14.43;;;6.37;;
6983;SDS011;3532;51.118;7.210;2022-12-24T16:41:47;17.43;;;5.63;;
6983;SDS011;3532;51.118;7.210;2022-12-24T16:44:31;12.47;;;5.23;;
6983;SDS011;3532;51.118;7.210;2022-12-24T16:46:56;14.43;;;5.13;;
6983;SDS011;3532;51.118;7.210;2022-12-24T16:49:23;18.83;;;6.90;;
6983;SDS011;3532;51.118;7.210;2022-12-24T16:51:48;21.23;;;7.40;;
6983;SDS011;3532;51.118;7.210;2022-12-24T16:54:14;16.67;;;5.63;;
6983;SDS011;3532;51.118;7.210;2022-12-24T16:56:40;13.43;;;5.47;;
6983;SDS011;3532;51.118;7.210;2022-12-24T16:59:06;22.03;;;7.97;;
6983;SDS011;3532;51.118;7.210;2022-12-24T17:01:47;22.27;;;7.47;;
6983;SDS011;3532;51.118;7.210;2022-12-24T17:04:12;13.73;;;5.70;;
6983;SDS011;3532;51.118;7.210;2022-12-24T17:06:38;18.13;;;6.20;;
6983;SDS011;3532;51.118;7.210;2022-12-24T17:09:04;21.07;;;6.50;;